Aeroporto :
LOGIN :

Iscrizione | Disclaimer

   EN    FR    IT 

 










Sommario :    VFR   VFR Marginale   IFR   IFR Intensivo   IFR Molto Intensivo
Visibilità : 
Base nubi : 
>= 8 km
>= 3000ft
5 / 8 km
1000 / 3000 ft
1500m / 5 km
500 / 1000 ft
800 / 1500m
200 / 500 ft
< 800m
< 200 ft
Simboli :   Temporali  Nebbia  Neve Forte  Precipitazioni Forti  Vento > 20 kt
SIGMETs :   Varie  Temporali  Ghiacco  Turbolenza  Onda orograficha  Ceneri Vulcaniche






- Altitudine del aeroporto : 200 ft
- Codice IATA : TCE


LRTC - Tulcea

ULTIMO METAR :
  • 061300Z 08017KT CAVOK 32/12 Q1016

METARs OBSOLETI :
  • 061230Z 08018KT 050V110 CAVOK 32/11 Q1016
  • 061200Z 08019KT CAVOK 32/11 Q1016
  • 061130Z 07019KT CAVOK 32/11 Q1016
  • 061100Z 08019KT 040V100 CAVOK 32/10 Q1016
  • 061030Z 07018KT CAVOK 32/12 Q1016

TAF TAF LRTC
Valido dal 06 a 12 ore il 06 a 21 ore UTC


061100Z 0612/0621 06018KT CAVOK
BECMG 0618/0620 VRB04KT



MetMap, La meteo Aeronautica in un colpo d'occhio ! - Copyright ORBIFLY Dicembre 2007 - Disclaimer

ORBIFLY MET'MAP TEAM :

Programmazione e sviluppo : Alexandra Zaïnal
Concezione : Baudouin d'Aumeries
Aiuto per la programmazione : Marc-Olivier Méhu
Supporto tecnico e logistico : Manuel Goepfert
Aiuto per la traduzione : Arnaldo La Scala

Contatto : metmap@orbifly.com




FONTI E CREDITI :

   NOAA